Time;durP1;ratioP1;P1;durP2;ratioP2;P2;SDS_P1;SDS_P2;PMS_P1;PMS_P2;Temp;Humidity;BMP_temperature;BMP_pressure;BME280_temperature;BME280_humidity;BME280_pressure;Samples;Min_cycle;Max_cycle;Signal;HPM_P1;HPM_P2
2023/03/13 00:02:17;;;;;;;;;;;10.30;99.90;;;;;;5098108;28;20022;-68
2023/03/13 00:04:44;;;;;;;;;;;10.30;99.90;;;;;;5090716;28;20343;-68
2023/03/13 00:07:12;;;;;;;;;;;10.30;99.90;;;;;;5092331;28;20387;-68
2023/03/13 00:09:40;;;;;;;;;;;10.40;99.90;;;;;;5074992;28;19935;-68
2023/03/13 00:12:07;;;;;;;;;;;10.40;99.90;;;;;;5090584;28;19932;-68
2023/03/13 00:14:34;;;;;;;;;;;10.40;99.90;;;;;;5088477;28;19928;-68
2023/03/13 00:17:01;;;;;;;;;;;10.50;99.90;;;;;;5101649;28;20002;-68
2023/03/13 00:19:28;;;;;;;;;;;10.60;99.90;;;;;;5089533;28;19999;-68
2023/03/13 00:21:55;;;;;;;;;;;10.60;99.90;;;;;;5089346;28;20280;-68
2023/03/13 00:24:21;;;;;;;;;;;10.70;99.90;;;;;;5090646;28;19931;-67
2023/03/13 00:26:49;;;;;;;;;;;10.70;99.90;;;;;;5094320;28;19924;-67
2023/03/13 00:29:16;;;;;;;;;;;10.80;99.90;;;;;;5098339;27;19954;-67
2023/03/13 00:31:43;;;;;;;;;;;10.80;99.90;;;;;;5087729;28;19932;-67
2023/03/13 00:34:09;;;;;;;;;;;10.90;99.90;;;;;;5100184;28;20264;-67
2023/03/13 00:36:36;;;;;;;;;;;10.90;99.90;;;;;;5106374;28;19935;-68
2023/03/13 00:39:03;;;;;;;;;;;10.90;99.90;;;;;;5102544;28;19932;-68
2023/03/13 00:41:31;;;;;;;;;;;10.90;99.90;;;;;;5095891;28;20394;-68
2023/03/13 00:43:59;;;;;;;;;;;11.00;99.90;;;;;;5085210;28;19928;-67
2023/03/13 00:46:27;;;;;;;;;;;11.00;99.90;;;;;;5089705;28;20024;-67
2023/03/13 00:48:53;;;;;;;;;;;11.10;99.90;;;;;;5091517;28;20010;-68
2023/03/13 00:51:22;;;;;;;;;;;11.10;99.90;;;;;;5081676;28;19931;-67
2023/03/13 00:53:49;;;;;;;;;;;11.10;99.90;;;;;;5086984;28;19932;-67
2023/03/13 00:56:16;;;;;;;;;;;11.10;99.90;;;;;;5095858;28;19924;-67
2023/03/13 00:58:44;;;;;;;;;;;11.10;99.90;;;;;;5091330;28;19930;-68
2023/03/13 01:01:13;;;;;;;;;;;11.10;99.90;;;;;;5097219;28;19931;-69
2023/03/13 01:03:40;;;;;;;;;;;11.20;99.90;;;;;;5094783;28;19924;-67
2023/03/13 01:06:08;;;;;;;;;;;11.10;99.90;;;;;;5088508;28;19998;-68
2023/03/13 01:08:35;;;;;;;;;;;11.20;99.90;;;;;;5088923;28;19924;-69
2023/03/13 01:11:02;;;;;;;;;;;11.30;99.90;;;;;;5090590;28;19924;-67
2023/03/13 01:13:31;;;;;;;;;;;11.30;99.90;;;;;;5096713;28;19939;-68
2023/03/13 01:16:01;;;;;;;;;;;11.40;99.90;;;;;;5097538;28;20324;-68
2023/03/13 01:18:29;;;;;;;;;;;11.40;99.90;;;;;;5088397;28;19924;-68
2023/03/13 01:20:56;;;;;;;;;;;11.40;99.90;;;;;;5098560;28;20001;-67
2023/03/13 01:23:23;;;;;;;;;;;11.40;99.90;;;;;;5089249;28;20018;-67
2023/03/13 01:25:49;;;;;;;;;;;11.40;99.90;;;;;;5080060;28;19931;-68
2023/03/13 01:28:16;;;;;;;;;;;11.50;99.90;;;;;;5099286;28;19924;-68
2023/03/13 01:30:43;;;;;;;;;;;11.40;99.90;;;;;;5088598;28;20047;-67
2023/03/13 01:33:09;;;;;;;;;;;11.60;99.90;;;;;;5086255;28;20290;-68
2023/03/13 01:35:37;;;;;;;;;;;11.60;99.90;;;;;;5096517;28;19939;-67
2023/03/13 01:38:04;;;;;;;;;;;11.60;99.90;;;;;;5094030;28;19935;-68
2023/03/13 01:40:30;;;;;;;;;;;11.70;99.90;;;;;;5091777;28;19930;-67
2023/03/13 01:42:58;;;;;;;;;;;11.70;99.90;;;;;;5094746;28;19932;-67
2023/03/13 01:45:43;;;;;;;;;;;11.60;99.90;;;;;;5086808;28;19924;-68
2023/03/13 01:48:09;;;;;;;;;;;11.70;99.90;;;;;;5057784;28;20371;-67
2023/03/13 01:50:37;;;;;;;;;;;11.70;99.90;;;;;;5089105;28;20275;-67
2023/03/13 01:53:04;;;;;;;;;;;11.70;99.90;;;;;;5087508;28;19930;-67
2023/03/13 01:55:31;;;;;;;;;;;11.80;99.90;;;;;;5087354;28;20015;-67
2023/03/13 01:57:57;;;;;;;;;;;11.80;99.90;;;;;;5091249;28;20011;-67
2023/03/13 02:00:25;;;;;;;;;;;11.80;99.90;;;;;;5093354;28;20002;-68
2023/03/13 02:02:53;;;;;;;;;;;11.80;99.90;;;;;;5088398;28;19932;-68
2023/03/13 02:05:20;;;;;;;;;;;11.80;99.90;;;;;;5089526;28;20417;-67
2023/03/13 02:07:51;;;;;;;;;;;11.80;99.90;;;;;;5089617;28;19924;-67
2023/03/13 02:10:18;;;;;;;;;;;11.90;99.90;;;;;;5091183;28;19934;-68
2023/03/13 02:12:45;;;;;;;;;;;11.90;99.90;;;;;;5085690;28;20014;-68
2023/03/13 02:15:13;;;;;;;;;;;11.90;99.90;;;;;;5085882;28;19924;-67
2023/03/13 02:17:40;;;;;;;;;;;12.00;99.90;;;;;;5089981;28;19924;-67
2023/03/13 02:20:07;;;;;;;;;;;12.00;99.90;;;;;;5092542;28;19955;-67
2023/03/13 02:22:39;;;;;;;;;;;12.00;99.90;;;;;;5085287;28;19932;-67
2023/03/13 02:25:11;;;;;;;;;;;12.10;99.90;;;;;;5087741;28;19925;-67
2023/03/13 02:27:39;;;;;;;;;;;12.10;99.90;;;;;;5097961;28;20276;-67
2023/03/13 02:30:06;;;;;;;;;;;12.10;99.90;;;;;;5094726;28;19928;-67
2023/03/13 02:32:33;;;;;;;;;;;12.10;99.90;;;;;;5086876;28;19924;-67
2023/03/13 02:35:03;;;;;;;;;;;12.20;99.90;;;;;;5081654;28;19930;-67
2023/03/13 02:37:30;;;;;;;;;;;12.20;99.90;;;;;;5091198;28;19930;-67
2023/03/13 02:40:00;;;;;;;;;;;12.20;99.90;;;;;;5085777;28;19925;-66
2023/03/13 02:42:28;;;;;;;;;;;12.30;99.90;;;;;;5092567;28;19942;-67
2023/03/13 02:44:56;;;;;;;;;;;12.30;99.90;;;;;;5085398;28;20350;-67
2023/03/13 02:47:24;;;;;;;;;;;12.20;99.90;;;;;;5088614;28;19977;-67
2023/03/13 02:49:50;;;;;;;;;;;12.30;99.90;;;;;;5079899;28;19938;-67
2023/03/13 02:52:19;;;;;;;;;;;12.30;99.90;;;;;;5088950;28;20744;-67
2023/03/13 02:54:48;;;;;;;;;;;12.40;99.90;;;;;;5085849;28;19931;-67
2023/03/13 02:57:14;;;;;;;;;;;12.30;99.90;;;;;;5081226;28;20014;-67
2023/03/13 02:59:41;;;;;;;;;;;12.40;99.90;;;;;;5087297;28;20007;-67
2023/03/13 03:02:09;;;;;;;;;;;12.50;99.90;;;;;;5109854;28;19930;-67
2023/03/13 03:04:35;;;;;;;;;;;12.50;99.90;;;;;;5091613;28;19934;-67
2023/03/13 03:07:02;;;;;;;;;;;12.50;99.90;;;;;;5088198;28;20011;-67
2023/03/13 03:09:29;;;;;;;;;;;12.60;99.90;;;;;;5089366;28;19931;-66
2023/03/13 03:11:55;;;;;;;;;;;12.60;99.90;;;;;;5102827;28;20019;-67
2023/03/13 03:14:22;;;;;;;;;;;12.50;99.90;;;;;;5083451;28;20019;-67
2023/03/13 03:16:49;;;;;;;;;;;12.60;99.90;;;;;;5100772;28;19924;-67
2023/03/13 03:19:17;;;;;;;;;;;12.60;99.90;;;;;;5091307;28;19930;-67
2023/03/13 03:21:43;;;;;;;;;;;12.60;99.90;;;;;;5105843;28;20007;-67
2023/03/13 03:24:10;;;;;;;;;;;12.60;99.90;;;;;;5091442;28;19924;-67
2023/03/13 03:26:37;;;;;;;;;;;12.60;99.90;;;;;;5087938;28;20015;-67
2023/03/13 03:29:03;;;;;;;;;;;12.60;99.90;;;;;;5095843;28;19924;-67
2023/03/13 03:31:30;;;;;;;;;;;12.60;99.90;;;;;;5079577;28;19928;-67
2023/03/13 03:33:57;;;;;;;;;;;12.60;99.90;;;;;;5091773;28;19938;-67
2023/03/13 03:36:25;;;;;;;;;;;12.60;99.90;;;;;;5086024;28;20302;-66
2023/03/13 03:38:53;;;;;;;;;;;12.60;99.90;;;;;;5097389;28;19939;-66
2023/03/13 03:41:19;;;;;;;;;;;12.60;99.90;;;;;;5098043;28;19924;-66
2023/03/13 03:43:47;;;;;;;;;;;12.60;99.90;;;;;;5090578;28;20020;-66
2023/03/13 03:46:14;;;;;;;;;;;12.60;99.90;;;;;;5090520;28;19930;-66
2023/03/13 03:48:40;;;;;;;;;;;12.70;99.90;;;;;;5094783;28;19924;-67
2023/03/13 03:51:07;;;;;;;;;;;12.70;99.90;;;;;;5098006;28;19973;-66
2023/03/13 03:53:35;;;;;;;;;;;12.70;99.90;;;;;;5090740;28;20286;-67
2023/03/13 03:56:02;;;;;;;;;;;;;;;;;;5103888;28;19924;-66
2023/03/13 03:58:29;;;;;;;;;;;;;;;;;;5090638;28;20306;-66
2023/03/13 04:00:56;;;;;;;;;;;;;;;;;;5090329;28;20497;-67
2023/03/13 04:03:23;;;;;;;;;;;;;;;;;;5089926;28;20401;-66
2023/03/13 04:05:50;;;;;;;;;;;;;;;;;;5096086;28;19927;-66
2023/03/13 04:08:17;;;;;;;;;;;;;;;;;;5092071;28;19926;-67
2023/03/13 04:10:44;;;;;;;;;;;;;;;;;;5096578;28;19923;-66
2023/03/13 04:13:11;;;;;;;;;;;;;;;;;;5091083;28;20410;-67
2023/03/13 04:15:38;;;;;;;;;;;;;;;;;;5089944;28;19931;-66
2023/03/13 04:18:05;;;;;;;;;;;;;;;;;;5092265;28;19924;-66
2023/03/13 04:20:32;;;;;;;;;;;;;;;;;;5092725;28;19939;-66
2023/03/13 04:22:59;;;;;;;;;;;;;;;;;;5089397;28;20023;-66
2023/03/13 04:25:25;;;;;;;;;;;;;;;;;;5088770;28;19924;-66
2023/03/13 04:27:52;;;;;;;;;;;;;;;;;;5089736;28;20303;-66
2023/03/13 04:30:19;;;;;;;;;;;;;;;;;;5084959;28;20721;-67
2023/03/13 04:32:46;;;;;;;;;;;;;;;;;;5084002;28;19924;-66
2023/03/13 04:35:13;;;;;;;;;;;;;;;;;;5081748;28;19924;-66
2023/03/13 04:37:40;;;;;;;;;;;;;;;;;;5086981;28;19925;-67
2023/03/13 04:40:08;;;;;;;;;;;;;;;;;;5088041;28;19924;-67
2023/03/13 04:42:35;;;;;;;;;;;;;;;;;;5104602;28;19999;-68
2023/03/13 04:45:02;;;;;;;;;;;;;;;;;;5085855;28;20014;-68
2023/03/13 04:47:29;;;;;;;;;;;;;;;;;;5090001;28;19924;-67
2023/03/13 04:49:56;;;;;;;;;;;;;;;;;;5085950;28;19928;-68
2023/03/13 04:52:23;;;;;;;;;;;;;;;;;;5085396;28;19930;-67
2023/03/13 04:54:50;;;;;;;;;;;;;;;;;;5090538;28;19928;-66
2023/03/13 04:57:17;;;;;;;;;;;;;;;;;;5088850;28;19939;-67
2023/03/13 04:59:44;;;;;;;;;;;;;;;;;;5091332;28;19930;-67
2023/03/13 05:02:11;;;;;;;;;;;;;;;;;;5093652;28;19927;-66
2023/03/13 05:04:38;;;;;;;;;;;;;;;;;;5088949;28;19924;-67
2023/03/13 05:07:05;;;;;;;;;;;;;;;;;;5091793;28;19931;-66
2023/03/13 05:09:32;;;;;;;;;;;;;;;;;;5093327;28;20294;-66
2023/03/13 05:11:59;;;;;;;;;;;;;;;;;;5090183;28;20374;-66
2023/03/13 05:14:25;;;;;;;;;;;;;;;;;;5089135;28;19934;-67
2023/03/13 05:16:52;;;;;;;;;;;;;;;;;;5098700;28;19924;-67
2023/03/13 05:19:19;;;;;;;;;;;;;;;;;;5094467;28;19923;-67
2023/03/13 05:21:46;;;;;;;;;;;;;;;;;;5089199;28;19928;-68
2023/03/13 05:24:13;;;;;;;;;;;;;;;;;;5088148;28;19932;-68
2023/03/13 05:26:40;;;;;;;;;;;;;;;;;;5089154;28;19924;-68
2023/03/13 05:29:07;;;;;;;;;;;;;;;;;;5086861;28;19924;-68
2023/03/13 05:31:34;;;;;;;;;;;;;;;;;;5088646;28;20030;-68
2023/03/13 05:34:01;;;;;;;;;;;;;;;;;;5086775;28;19924;-69
2023/03/13 05:36:28;;;;;;;;;;;;;;;;;;5087487;28;19923;-69
2023/03/13 05:38:55;;;;;;;;;;;;;;;;;;5092721;28;19974;-70
2023/03/13 05:41:22;;;;;;;;;;;;;;;;;;5107577;28;20031;-69
2023/03/13 05:43:49;;;;;;;;;;;;;;;;;;5083909;28;19932;-69
2023/03/13 05:46:16;;;;;;;;;;;;;;;;;;5080760;28;20518;-68
2023/03/13 05:48:44;;;;;;;;;;;;;;;;;;5087884;28;19971;-68
2023/03/13 05:51:11;;;;;;;;;;;;;;;;;;5094826;28;19925;-68
2023/03/13 05:53:38;;;;;;;;;;;;;;;;;;5087361;28;20343;-69
2023/03/13 05:56:05;;;;;;;;;;;;;;;;;;5087840;28;19924;-68
2023/03/13 05:58:32;;;;;;;;;;;;;;;;;;5090170;28;20014;-67
2023/03/13 06:00:59;;;;;;;;;;;;;;;;;;5080352;28;19932;-69
2023/03/13 06:03:26;;;;;;;;;;;;;;;;;;5096907;28;19924;-68
2023/03/13 06:05:53;;;;;;;;;;;;;;;;;;5090434;28;20019;-68
2023/03/13 06:08:20;;;;;;;;;;;;;;;;;;5102880;28;19931;-68
2023/03/13 06:10:47;;;;;;;;;;;;;;;;;;5091989;28;19932;-68
2023/03/13 06:13:13;;;;;;;;;;;;;;;;;;5088482;28;19928;-69
2023/03/13 06:15:40;;;;;;;;;;;;;;;;;;5085838;28;20010;-69
2023/03/13 06:18:07;;;;;;;;;;;;;;;;;;5088008;28;19999;-69
2023/03/13 06:20:34;;;;;;;;;;;;;;;;;;5087585;28;20019;-68
2023/03/13 06:23:01;;;;;;;;;;;;;;;;;;5087350;28;19934;-68
2023/03/13 06:25:28;;;;;;;;;;;;;;;;;;5087997;28;19931;-68
2023/03/13 06:27:55;;;;;;;;;;;;;;;;;;5084036;28;19930;-68
2023/03/13 06:30:22;;;;;;;;;;;;;;;;;;5080332;28;19924;-68
2023/03/13 06:32:49;;;;;;;;;;;;;;;;;;5086682;28;19924;-69
2023/03/13 06:35:16;;;;;;;;;;;;;;;;;;5089477;28;19932;-69
2023/03/13 06:37:43;;;;;;;;;;;;;;;;;;5087667;28;19933;-68
2023/03/13 06:40:10;;;;;;;;;;;;;;;;;;5088049;28;19938;-69
2023/03/13 06:42:39;;;;;;;;;;;;;;;;;;5084828;28;19924;-69
2023/03/13 06:45:06;;;;;;;;;;;;;;;;;;5090969;28;19928;-69
2023/03/13 06:47:33;;;;;;;;;;;;;;;;;;5087409;28;20019;-69
2023/03/13 06:50:00;;;;;;;;;;;;;;;;;;5086086;28;19942;-69
2023/03/13 06:52:27;;;;;;;;;;;;;;;;;;5084992;28;19931;-68
2023/03/13 06:54:54;;;;;;;;;;;;;;;;;;5083378;28;20394;-69
2023/03/13 06:57:21;;;;;;;;;;;;;;;;;;5096130;27;19928;-69
2023/03/13 06:59:48;;;;;;;;;;;;;;;;;;5090080;28;19928;-70
2023/03/13 07:02:15;;;;;;;;;;;;;;;;;;5089895;28;20390;-69
2023/03/13 07:04:42;;;;;;;;;;;;;;;;;;5090681;28;19969;-68
2023/03/13 07:07:09;;;;;;;;;;;;;;;;;;5095028;28;19923;-70
2023/03/13 07:09:36;;;;;;;;;;;;;;;;;;5089787;28;19942;-69
2023/03/13 07:12:04;;;;;;;;;;;;;;;;;;5106567;28;20031;-68
2023/03/13 07:14:31;;;;;;;;;;;;;;;;;;5092859;28;19928;-68
2023/03/13 07:16:58;;;;;;;;;;;;;;;;;;5091656;28;19931;-68
2023/03/13 07:19:25;;;;;;;;;;;;;;;;;;5088808;28;19931;-69
2023/03/13 07:21:52;;;;;;;;;;;;;;;;;;5090276;28;20387;-68
2023/03/13 07:24:19;;;;;;;;;;;;;;;;;;5086250;28;19924;-68
2023/03/13 07:26:46;;;;;;;;;;;;;;;;;;5092373;28;20019;-67
2023/03/13 07:29:14;;;;;;;;;;;;;;;;;;5084423;28;20383;-69
2023/03/13 07:31:41;;;;;;;;;;;;;;;;;;5084233;28;19924;-68
2023/03/13 07:34:08;;;;;;;;;;;;;;;;;;5082015;28;19928;-67
2023/03/13 07:36:35;;;;;;;;;;;;;;;;;;5080610;28;19928;-68
2023/03/13 07:39:02;;;;;;;;;;;;;;;;;;5085972;28;20439;-68
2023/03/13 07:41:29;;;;;;;;;;;;;;;;;;5084663;28;19929;-68
2023/03/13 07:43:56;;;;;;;;;;;;;;;;;;5088269;28;19924;-68
2023/03/13 07:46:23;;;;;;;;;;;;;;;;;;5086566;28;20345;-69
2023/03/13 07:48:51;;;;;;;;;;;;;;;;;;5088663;28;20421;-69
2023/03/13 07:51:18;;;;;;;;;;;;;;;;;;5086932;28;19928;-69
2023/03/13 07:53:46;;;;;;;;;;;;;;;;;;5089262;28;19928;-69
2023/03/13 07:56:13;;;;;;;;;;;;;;;;;;5093141;28;20432;-68
2023/03/13 07:58:40;;;;;;;;;;;;;;;;;;5080586;28;19928;-68
2023/03/13 08:01:07;;;;;;;;;;;;;;;;;;5081655;28;20015;-67
2023/03/13 08:03:34;;;;;;;;;;;;;;;;;;5088990;28;19924;-67
2023/03/13 08:06:01;;;;;;;;;;;;;;;;;;5084625;28;19927;-68
2023/03/13 08:08:29;;;;;;;;;;;13.30;99.90;;;;;;5088315;28;19930;-67
2023/03/13 08:10:59;;;;;;;;;;;13.30;99.90;;;;;;5093350;28;19931;-67
2023/03/13 08:13:26;;;;;;;;;;;13.40;99.90;;;;;;5093911;28;19928;-67
2023/03/13 08:15:53;;;;;;;;;;;13.40;99.90;;;;;;5083574;28;19940;-67
2023/03/13 08:18:19;;;;;;;;;;;13.50;99.90;;;;;;5082562;28;20070;-68
2023/03/13 08:20:46;;;;;;;;;;;13.50;99.90;;;;;;5091928;28;19924;-67
2023/03/13 08:23:12;;;;;;;;;;;13.50;99.90;;;;;;5102881;28;19970;-67
2023/03/13 08:25:40;;;;;;;;;;;13.60;99.90;;;;;;5091842;28;19934;-67
2023/03/13 08:28:07;;;;;;;;;;;13.60;99.90;;;;;;5089216;28;20351;-67
2023/03/13 08:30:34;;;;;;;;;;;13.60;99.90;;;;;;5083647;28;19931;-66
2023/03/13 08:33:01;;;;;;;;;;;13.80;99.90;;;;;;5082803;28;20055;-67
2023/03/13 08:35:28;;;;;;;;;;;13.90;99.90;;;;;;5086398;28;20010;-66
2023/03/13 08:37:55;;;;;;;;;;;13.90;99.90;;;;;;5090660;28;19930;-67
2023/03/13 08:40:21;;;;;;;;;;;14.00;99.90;;;;;;5078701;28;19928;-66
2023/03/13 08:42:49;;;;;;;;;;;14.20;99.90;;;;;;5084277;28;20356;-66
2023/03/13 08:45:16;;;;;;;;;;;15.20;99.90;;;;;;5078020;28;19924;-65
2023/03/13 08:47:43;;;;;;;;;;;16.60;99.90;;;;;;5078607;28;20010;-67
2023/03/13 08:50:10;;;;;;;;;;;16.50;99.90;;;;;;5084398;28;19930;-67
2023/03/13 08:52:37;;;;;;;;;;;16.70;99.90;;;;;;5081782;28;19924;-65
2023/03/13 08:55:04;;;;;;;;;;;16.60;99.90;;;;;;5087433;28;20441;-66
2023/03/13 08:57:30;;;;;;;;;;;16.60;99.90;;;;;;5083902;28;19932;-66
2023/03/13 08:59:58;;;;;;;;;;;17.40;99.90;;;;;;5087954;28;20440;-66
2023/03/13 09:02:25;;;;;;;;;;;17.50;99.90;;;;;;5082955;28;19932;-66
2023/03/13 09:04:52;;;;;;;;;;;17.70;99.90;;;;;;5084094;28;19932;-66
2023/03/13 09:07:19;;;;;;;;;;;17.70;99.90;;;;;;5082030;28;19931;-66
2023/03/13 09:09:45;;;;;;;;;;;17.80;99.90;;;;;;5085621;28;19939;-66
2023/03/13 09:12:12;;;;;;;;;;;17.10;99.90;;;;;;5090823;28;19975;-67
2023/03/13 09:14:39;;;;;;;;;;;16.70;99.90;;;;;;5080308;28;20275;-66
2023/03/13 09:17:07;;;;;;;;;;;15.80;99.90;;;;;;5081631;28;20024;-66
2023/03/13 09:19:34;;;;;;;;;;;15.20;99.90;;;;;;5082659;28;19932;-65
2023/03/13 09:22:00;;;;;;;;;;;15.40;99.90;;;;;;5094486;28;19946;-67
2023/03/13 09:24:27;;;;;;;;;;;16.70;99.90;;;;;;5090175;28;19932;-67
2023/03/13 09:26:54;;;;;;;;;;;16.30;99.90;;;;;;5082495;28;20018;-66
2023/03/13 09:29:21;;;;;;;;;;;15.90;99.90;;;;;;5079910;28;19936;-66
2023/03/13 09:31:47;;;;;;;;;;;16.60;99.90;;;;;;5082879;28;19924;-66
2023/03/13 09:34:15;;;;;;;;;;;16.40;99.90;;;;;;5077763;28;20022;-66
2023/03/13 09:36:42;;;;;;;;;;;16.20;99.90;;;;;;5082134;28;19975;-66
2023/03/13 09:39:08;;;;;;;;;;;16.20;99.90;;;;;;5079351;28;20011;-66
2023/03/13 09:41:38;;;;;;;;;;;16.00;99.90;;;;;;5084998;28;19924;-66
2023/03/13 09:44:08;;;;;;;;;;;15.90;99.90;;;;;;5086259;28;19924;-67
2023/03/13 09:46:38;;;;;;;;;;;15.70;99.90;;;;;;5079692;28;19932;-67
2023/03/13 09:49:08;;;;;;;;;;;15.70;99.90;;;;;;5087952;28;19946;-66
2023/03/13 09:51:39;;;;;;;;;;;15.70;99.90;;;;;;5081695;28;20025;-66
2023/03/13 09:54:07;;;;;;;;;;;15.60;99.90;;;;;;5079825;28;20582;-66
2023/03/13 09:56:37;;;;;;;;;;;15.50;99.90;;;;;;5081300;28;19946;-65
2023/03/13 09:59:06;;;;;;;;;;;15.40;99.90;;;;;;5081103;28;19924;-66
2023/03/13 10:01:34;;;;;;;;;;;15.40;99.90;;;;;;5084820;28;19925;-66
2023/03/13 10:04:04;;;;;;;;;;;15.50;99.90;;;;;;5081021;28;19939;-65
2023/03/13 10:06:34;;;;;;;;;;;15.70;99.90;;;;;;5083618;28;19931;-66
2023/03/13 10:09:02;;;;;;;;;;;15.90;99.90;;;;;;5086049;28;20055;-65
2023/03/13 10:11:30;;;;;;;;;;;15.90;99.90;;;;;;5083704;28;20383;-65
2023/03/13 10:14:00;;;;;;;;;;;15.80;99.90;;;;;;5088713;28;20017;-64
2023/03/13 10:16:29;;;;;;;;;;;15.70;99.90;;;;;;5094076;28;19925;-65
2023/03/13 10:18:56;;;;;;;;;;;15.70;99.90;;;;;;5082541;28;19928;-65
2023/03/13 10:21:24;;;;;;;;;;;15.80;99.90;;;;;;5081408;28;19928;-67
2023/03/13 10:23:54;;;;;;;;;;;15.70;99.90;;;;;;5090454;28;20386;-68
2023/03/13 10:26:24;;;;;;;;;;;15.80;99.90;;;;;;5086037;28;20014;-67
2023/03/13 10:28:51;;;;;;;;;;;15.80;99.90;;;;;;5087945;28;20027;-68
2023/03/13 10:31:21;;;;;;;;;;;15.90;99.90;;;;;;5082477;28;19928;-68
2023/03/13 10:33:47;;;;;;;;;;;15.90;99.90;;;;;;5083717;28;20023;-68
2023/03/13 10:36:14;;;;;;;;;;;16.20;99.90;;;;;;5091389;28;19935;-65
2023/03/13 10:38:46;;;;;;;;;;;16.40;99.90;;;;;;5085269;28;20019;-65
2023/03/13 10:41:20;;;;;;;;;;;16.60;99.90;;;;;;5081507;28;20034;-66
2023/03/13 10:43:51;;;;;;;;;;;16.70;99.90;;;;;;5088151;28;19934;-66
2023/03/13 10:46:24;;;;;;;;;;;16.90;99.90;;;;;;5091610;28;19924;-66
2023/03/13 10:48:53;;;;;;;;;;;16.60;99.90;;;;;;5077342;28;20339;-66
2023/03/13 10:51:21;;;;;;;;;;;16.30;99.90;;;;;;5082446;28;19936;-65
2023/03/13 10:53:50;;;;;;;;;;;16.10;99.90;;;;;;5080437;28;20409;-66
2023/03/13 10:56:23;;;;;;;;;;;16.10;99.90;;;;;;5083705;28;20382;-65
2023/03/13 10:58:52;;;;;;;;;;;16.20;99.90;;;;;;5092554;28;19971;-66
2023/03/13 11:01:21;;;;;;;;;;;16.20;99.90;;;;;;5088940;28;19924;-66
2023/03/13 11:03:48;;;;;;;;;;;16.30;99.90;;;;;;5093322;28;19923;-65
2023/03/13 11:06:23;;;;;;;;;;;16.50;99.90;;;;;;5086035;28;19924;-65
2023/03/13 11:08:50;;;;;;;;;;;16.60;99.90;;;;;;5078819;28;20653;-65
2023/03/13 11:11:17;;;;;;;;;;;16.40;99.90;;;;;;5083160;28;19959;-65
2023/03/13 11:13:44;;;;;;;;;;;16.30;99.90;;;;;;5082902;28;19928;-67
2023/03/13 11:16:17;;;;;;;;;;;16.10;99.90;;;;;;5088822;28;19924;-66
2023/03/13 11:18:50;;;;;;;;;;;15.80;99.90;;;;;;5084918;28;20407;-66
2023/03/13 11:21:19;;;;;;;;;;;15.80;99.90;;;;;;5090776;28;19942;-67
2023/03/13 11:23:49;;;;;;;;;;;15.80;99.90;;;;;;5091119;28;19962;-66
2023/03/13 11:26:19;;;;;;;;;;;15.80;99.90;;;;;;5083702;28;19924;-66
2023/03/13 11:28:50;;;;;;;;;;;15.90;99.90;;;;;;5096054;28;19930;-65
2023/03/13 11:31:20;;;;;;;;;;;16.20;99.90;;;;;;5087747;28;19946;-65
2023/03/13 11:33:52;;;;;;;;;;;16.30;99.90;;;;;;5087842;28;19924;-66
2023/03/13 11:36:21;;;;;;;;;;;16.50;99.90;;;;;;5092752;28;19970;-66
2023/03/13 11:38:49;;;;;;;;;;;16.70;99.90;;;;;;5088491;28;20287;-66
2023/03/13 11:41:24;;;;;;;;;;;16.70;99.90;;;;;;5090067;28;19940;-66
2023/03/13 11:43:58;;;;;;;;;;;16.70;99.90;;;;;;5089397;28;19924;-66
2023/03/13 11:46:30;;;;;;;;;;;16.80;99.90;;;;;;5088209;28;20019;-66
2023/03/13 11:49:09;;;;;;;;;;;16.70;99.90;;;;;;5090923;28;20027;-65
2023/03/13 11:51:39;;;;;;;;;;;16.60;99.90;;;;;;5094776;28;20289;-66
2023/03/13 11:54:16;;;;;;;;;;;16.60;99.90;;;;;;5089595;28;20294;-66
2023/03/13 11:56:44;;;;;;;;;;;16.60;99.90;;;;;;5090962;28;20581;-65
2023/03/13 11:59:22;;;;;;;;;;;16.70;99.90;;;;;;5091858;28;19924;-64
2023/03/13 12:01:53;;;;;;;;;;;16.90;99.90;;;;;;5082298;28;20010;-65
2023/03/13 12:04:23;;;;;;;;;;;16.80;99.90;;;;;;5096758;28;20359;-65
2023/03/13 12:06:52;;;;;;;;;;;16.80;99.90;;;;;;5084901;28;19956;-65
2023/03/13 12:09:21;;;;;;;;;;;16.90;99.90;;;;;;5098406;28;19930;-66
2023/03/13 12:11:52;;;;;;;;;;;16.90;99.90;;;;;;5090575;28;19929;-65
2023/03/13 12:14:21;;;;;;;;;;;16.90;99.90;;;;;;5081999;28;20054;-65
2023/03/13 12:16:51;;;;;;;;;;;16.80;99.90;;;;;;5082451;28;19928;-66
2023/03/13 12:19:22;;;;;;;;;;;16.60;99.90;;;;;;5098121;28;20287;-66
2023/03/13 12:21:51;;;;;;;;;;;16.60;99.90;;;;;;5097518;28;19928;-67
2023/03/13 12:24:28;;;;;;;;;;;16.40;99.90;;;;;;5086969;28;19939;-66
2023/03/13 12:26:58;;;;;;;;;;;16.60;99.90;;;;;;5083250;28;19928;-66
2023/03/13 12:29:31;;;;;;;;;;;16.90;99.90;;;;;;5085274;28;19934;-66
2023/03/13 12:31:59;;;;;;;;;;;16.90;99.90;;;;;;5092440;28;19932;-65
2023/03/13 12:34:30;;;;;;;;;;;17.10;99.90;;;;;;5081736;28;19930;-66
2023/03/13 12:37:01;;;;;;;;;;;17.10;99.90;;;;;;5085737;28;19971;-66
2023/03/13 12:39:31;;;;;;;;;;;16.90;99.90;;;;;;5085164;28;19928;-66
2023/03/13 12:42:07;;;;;;;;;;;16.90;99.90;;;;;;5081057;28;19925;-66
2023/03/13 12:44:34;;;;;;;;;;;16.90;99.90;;;;;;5082660;28;20353;-65
2023/03/13 12:47:07;;;;;;;;;;;16.80;99.90;;;;;;5099883;28;19924;-66
2023/03/13 12:49:41;;;;;;;;;;;16.80;99.90;;;;;;5097199;28;19963;-66
2023/03/13 12:52:34;;;;;;;;;;;16.60;99.90;;;;;;5083430;28;19924;-65
2023/03/13 12:55:22;;;;;;;;;;;16.60;99.90;;;;;;5087417;28;19927;-65
2023/03/13 12:58:01;;;;;;;;;;;16.90;99.90;;;;;;5080698;28;19931;-66
2023/03/13 13:00:29;;;;;;;;;;;16.90;99.90;;;;;;5082985;28;19983;-66
2023/03/13 13:03:02;;;;;;;;;;;16.70;99.90;;;;;;5094461;28;19931;-66
2023/03/13 13:05:30;;;;;;;;;;;16.70;99.90;;;;;;5088829;28;19931;-65
2023/03/13 13:07:57;;;;;;;;;;;16.60;99.90;;;;;;5102459;28;19979;-66
2023/03/13 13:10:25;;;;;;;;;;;17.00;99.90;;;;;;5096585;28;19932;-66
2023/03/13 13:13:11;;;;;;;;;;;17.10;99.90;;;;;;5089233;28;19936;-65
2023/03/13 13:15:42;;;;;;;;;;;16.80;99.90;;;;;;5096880;28;20015;-66
2023/03/13 13:18:24;;;;;;;;;;;16.70;99.90;;;;;;5089837;28;19964;-66
2023/03/13 13:21:15;;;;;;;;;;;16.50;99.90;;;;;;5090427;28;19923;-67
2023/03/13 13:23:45;;;;;;;;;;;16.40;99.90;;;;;;5086857;28;19924;-66
2023/03/13 13:26:45;;;;;;;;;;;16.40;99.90;;;;;;5082298;28;19930;-66
2023/03/13 13:29:30;;;;;;;;;;;16.70;99.90;;;;;;5088458;28;19923;-64
2023/03/13 13:32:00;;;;;;;;;;;16.80;99.90;;;;;;5082506;28;20415;-68
2023/03/13 13:34:45;;;;;;;;;;;16.60;99.90;;;;;;5090118;28;19939;-67
2023/03/13 13:37:27;;;;;;;;;;;16.80;99.90;;;;;;5088253;28;20014;-67
2023/03/13 13:40:09;;;;;;;;;;;17.10;99.90;;;;;;5086167;28;20364;-67
2023/03/13 13:42:46;;;;;;;;;;;17.10;99.90;;;;;;5085302;28;19924;-67
2023/03/13 13:45:24;;;;;;;;;;;17.30;99.90;;;;;;5097005;28;20059;-68
2023/03/13 13:48:11;;;;;;;;;;;17.20;99.90;;;;;;5089049;28;19947;-67
2023/03/13 13:50:39;;;;;;;;;;;17.00;99.90;;;;;;5088426;28;19978;-67
2023/03/13 13:53:30;;;;;;;;;;;17.10;99.90;;;;;;5094425;28;19924;-67
2023/03/13 13:55:57;;;;;;;;;;;17.10;99.90;;;;;;5090914;28;20454;-67
2023/03/13 13:58:25;;;;;;;;;;;17.00;99.90;;;;;;5083980;28;19932;-69
2023/03/13 14:00:53;;;;;;;;;;;17.30;99.90;;;;;;5091080;28;20019;-67
2023/03/13 14:03:21;;;;;;;;;;;17.30;99.90;;;;;;5086761;28;19963;-66
2023/03/13 14:05:51;;;;;;;;;;;17.20;99.90;;;;;;5085165;28;19930;-67
2023/03/13 14:08:21;;;;;;;;;;;17.10;99.90;;;;;;5096706;28;20105;-67
2023/03/13 14:10:52;;;;;;;;;;;17.00;99.90;;;;;;5096747;28;20208;-67
2023/03/13 14:13:19;;;;;;;;;;;17.00;99.90;;;;;;5085149;28;20018;-67
2023/03/13 14:15:46;;;;;;;;;;;17.10;99.90;;;;;;5088343;28;19984;-67
2023/03/13 14:18:16;;;;;;;;;;;16.90;99.90;;;;;;5089851;28;19924;-67
2023/03/13 14:20:54;;;;;;;;;;;16.90;99.90;;;;;;5094512;28;20035;-66
2023/03/13 14:23:31;;;;;;;;;;;17.10;99.90;;;;;;5097905;28;20432;-68
2023/03/13 14:25:58;;;;;;;;;;;17.10;99.90;;;;;;5093498;28;19924;-66
2023/03/13 14:28:25;;;;;;;;;;;17.20;99.90;;;;;;5105418;28;19928;-68
2023/03/13 14:30:53;;;;;;;;;;;17.20;99.90;;;;;;5087778;28;20018;-67
2023/03/13 14:33:20;;;;;;;;;;;17.20;99.90;;;;;;5084657;28;19955;-67
2023/03/13 14:35:47;;;;;;;;;;;17.30;99.90;;;;;;5082104;28;20027;-67
2023/03/13 14:38:19;;;;;;;;;;;17.30;94.70;;;;;;5078824;28;20426;-67
2023/03/13 14:40:46;;;;;;;;;;;17.20;93.00;;;;;;5096439;28;19927;-68
2023/03/13 14:43:18;;;;;;;;;;;17.10;93.00;;;;;;5084789;28;20411;-68
2023/03/13 14:45:45;;;;;;;;;;;17.10;92.30;;;;;;5095854;28;19923;-67
2023/03/13 14:48:16;;;;;;;;;;;17.10;92.10;;;;;;5098449;28;19935;-67
2023/03/13 14:50:43;;;;;;;;;;;16.90;91.70;;;;;;5095714;28;19930;-67
2023/03/13 14:53:12;;;;;;;;;;;17.10;91.70;;;;;;5089458;28;19932;-67
2023/03/13 14:55:40;;;;;;;;;;;17.40;91.10;;;;;;5088081;28;19924;-67
2023/03/13 14:58:22;;;;;;;;;;;17.40;91.40;;;;;;5088112;28;19931;-68
2023/03/13 15:00:49;;;;;;;;;;;17.40;90.00;;;;;;5082101;28;21114;-67
2023/03/13 15:03:20;;;;;;;;;;;17.50;90.50;;;;;;5083677;28;20006;-67
2023/03/13 15:05:47;;;;;;;;;;;17.40;89.80;;;;;;5083888;28;19954;-67